createdAt,value
2019-02-15T00:00:41.319Z,62.10
2019-02-15T00:02:44.332Z,62.00
2019-02-15T00:04:48.133Z,62.10
2019-02-15T00:06:51.802Z,62.20
2019-02-15T00:08:56.218Z,62.20
2019-02-15T00:10:59.251Z,62.10
2019-02-15T00:13:02.170Z,62.10
2019-02-15T00:15:05.199Z,62.10
2019-02-15T00:17:09.001Z,62.00
2019-02-15T00:19:21.916Z,62.00
2019-02-15T00:21:25.002Z,62.00
2019-02-15T00:23:27.958Z,62.00
2019-02-15T00:25:30.860Z,62.00
2019-02-15T00:27:34.527Z,62.60
2019-02-15T00:29:37.867Z,62.00
2019-02-15T00:31:40.782Z,62.00
2019-02-15T00:33:43.720Z,62.00
2019-02-15T00:35:47.544Z,62.10
2019-02-15T00:37:50.462Z,62.10
2019-02-15T00:39:53.491Z,62.10
2019-02-15T00:41:57.290Z,62.10
2019-02-15T00:44:00.971Z,62.10
2019-02-15T00:46:07.382Z,62.00
2019-02-15T00:48:10.452Z,62.10
2019-02-15T00:50:27.205Z,62.00
2019-02-15T00:52:30.230Z,62.10
2019-02-15T00:54:43.846Z,62.10
2019-02-15T00:57:01.734Z,62.10
2019-02-15T00:59:19.627Z,62.00
2019-02-15T01:01:29.254Z,62.00
2019-02-15T01:03:47.039Z,61.90
2019-02-15T01:05:56.440Z,62.00
2019-02-15T01:08:14.395Z,62.20
2019-02-15T01:10:32.174Z,62.00
2019-02-15T01:12:35.865Z,62.10
2019-02-15T01:14:38.995Z,62.10
2019-02-15T01:16:41.930Z,62.20
2019-02-15T01:18:44.945Z,62.20
2019-02-15T01:20:48.651Z,62.30
2019-02-15T01:22:52.332Z,62.20
2019-02-15T01:24:55.239Z,62.20
2019-02-15T01:26:58.183Z,62.20
2019-02-15T01:29:01.543Z,62.30
2019-02-15T01:31:20.240Z,62.30
2019-02-15T01:33:40.758Z,63.00
2019-02-15T01:35:53.582Z,62.20
2019-02-15T01:38:01.464Z,62.00
2019-02-15T01:40:05.282Z,62.20
2019-02-15T01:42:25.659Z,62.30
2019-02-15T01:44:30.042Z,62.20
2019-02-15T01:46:37.937Z,61.50
2019-02-15T01:48:40.838Z,61.70
2019-02-15T01:50:45.114Z,62.20
2019-02-15T01:52:48.451Z,62.10
2019-02-15T01:54:52.143Z,62.40
2019-02-15T01:56:55.810Z,63.10
2019-02-15T01:58:58.853Z,62.30
2019-02-15T02:01:01.767Z,62.40
2019-02-15T02:03:04.684Z,62.50
2019-02-15T02:05:08.004Z,62.60
2019-02-15T02:07:10.923Z,62.60
2019-02-15T02:09:13.952Z,62.60
2019-02-15T02:11:17.670Z,63.40
2019-02-15T02:13:20.586Z,62.70
2019-02-15T02:15:23.504Z,62.70
2019-02-15T02:17:26.578Z,62.60
2019-02-15T02:19:29.503Z,62.50
2019-02-15T02:21:32.417Z,62.50
2019-02-15T02:23:35.448Z,62.50
2019-02-15T02:25:39.786Z,62.70
2019-02-15T02:27:42.719Z,62.50
2019-02-15T02:29:45.674Z,62.60
2019-02-15T02:31:48.581Z,62.70
2019-02-15T02:33:51.500Z,62.70
2019-02-15T02:35:54.699Z,62.70
2019-02-15T02:37:57.623Z,62.70
2019-02-15T02:40:00.647Z,62.70
2019-02-15T02:42:03.607Z,62.70
2019-02-15T02:44:08.023Z,62.80
2019-02-15T02:46:11.042Z,62.70
2019-02-15T02:48:14.035Z,62.80
2019-02-15T02:50:16.947Z,62.90
2019-02-15T02:52:19.878Z,63.00
2019-02-15T02:54:23.696Z,63.10
2019-02-15T02:56:26.614Z,63.10
2019-02-15T02:58:29.543Z,63.10
2019-02-15T03:00:33.750Z,63.10
2019-02-15T03:02:35.567Z,63.20
2019-02-15T03:04:38.594Z,63.30
2019-02-15T03:06:42.309Z,63.50
2019-02-15T03:08:45.223Z,63.40
2019-02-15T03:10:48.141Z,63.40
2019-02-15T03:12:51.264Z,63.30
2019-02-15T03:14:54.509Z,63.30
2019-02-15T03:16:57.431Z,63.30
2019-02-15T03:19:00.508Z,63.20
2019-02-15T03:21:04.198Z,63.50
2019-02-15T03:23:07.882Z,63.70
2019-02-15T03:25:11.735Z,63.70
2019-02-15T03:27:14.643Z,63.60
2019-02-15T03:29:17.769Z,63.70
2019-02-15T03:31:21.490Z,63.90
2019-02-15T03:33:24.413Z,63.80
2019-02-15T03:35:27.399Z,63.80
2019-02-15T03:37:45.233Z,63.90
2019-02-15T03:39:48.175Z,63.90
2019-02-15T03:41:51.093Z,63.90
2019-02-15T03:43:54.031Z,63.90
2019-02-15T03:45:56.943Z,64.00
2019-02-15T03:47:59.852Z,64.10
2019-02-15T03:50:04.863Z,64.10
2019-02-15T03:52:05.757Z,64.30
2019-02-15T03:54:08.679Z,64.40
2019-02-15T03:56:11.825Z,64.40
2019-02-15T03:58:14.744Z,64.40
2019-02-15T04:00:17.771Z,64.40
2019-02-15T04:02:21.590Z,64.50
2019-02-15T04:04:24.520Z,64.50
2019-02-15T04:06:27.438Z,64.50
2019-02-15T04:08:31.262Z,64.60
2019-02-15T04:10:34.183Z,64.60
2019-02-15T04:12:37.208Z,64.60
2019-02-15T04:14:40.416Z,64.60
2019-02-15T04:16:43.356Z,64.60
2019-02-15T04:18:46.328Z,64.60
2019-02-15T04:20:49.277Z,64.50
2019-02-15T04:22:52.226Z,63.90
2019-02-15T04:24:56.131Z,64.10
2019-02-15T04:26:59.847Z,64.40
2019-02-15T04:29:02.764Z,64.30
2019-02-15T04:31:05.693Z,64.50
2019-02-15T04:33:09.518Z,64.70
2019-02-15T04:35:12.440Z,64.70
2019-02-15T04:37:15.564Z,64.80
2019-02-15T04:39:19.369Z,65.20
2019-02-15T04:41:23.048Z,65.20
2019-02-15T04:43:25.965Z,65.00
2019-02-15T04:45:29.684Z,65.20
2019-02-15T04:47:32.608Z,65.10
2019-02-15T04:49:35.525Z,65.30
2019-02-15T04:51:38.491Z,65.30
2019-02-15T04:53:42.193Z,65.40
2019-02-15T04:55:46.006Z,65.50
2019-02-15T04:57:49.721Z,65.40
2019-02-15T04:59:52.643Z,65.40
2019-02-15T05:01:55.660Z,65.40
2019-02-15T05:03:59.378Z,65.30
2019-02-15T05:06:02.330Z,65.20
2019-02-15T05:08:05.294Z,65.20
2019-02-15T05:10:08.310Z,65.10
2019-02-15T05:12:12.032Z,65.20
2019-02-15T05:14:14.969Z,65.10
2019-02-15T05:16:18.505Z,65.10
2019-02-15T05:18:21.423Z,65.30
2019-02-15T05:20:24.339Z,65.20
2019-02-15T05:22:27.283Z,65.30
2019-02-15T05:24:30.318Z,65.30
2019-02-15T05:26:33.999Z,65.60
2019-02-15T05:28:37.059Z,65.50
2019-02-15T05:30:39.984Z,65.50
2019-02-15T05:32:43.682Z,65.60
2019-02-15T05:34:47.502Z,65.60
2019-02-15T05:36:50.424Z,65.40
2019-02-15T05:38:53.340Z,65.40
2019-02-15T05:40:57.151Z,65.40
2019-02-15T05:43:00.953Z,65.50
2019-02-15T05:45:04.868Z,66.20
2019-02-15T05:47:07.850Z,65.30
2019-02-15T05:49:11.543Z,65.30
2019-02-15T05:51:15.225Z,65.30
2019-02-15T05:53:18.167Z,65.30
2019-02-15T05:55:21.138Z,65.20
2019-02-15T05:57:24.886Z,65.20
2019-02-15T05:59:29.757Z,65.10
2019-02-15T06:01:32.672Z,65.10
2019-02-15T06:03:35.579Z,65.10
2019-02-15T06:05:38.533Z,65.20
2019-02-15T06:07:41.457Z,65.20
2019-02-15T06:09:45.202Z,65.20
2019-02-15T06:11:49.440Z,65.10
2019-02-15T06:13:52.381Z,65.10
2019-02-15T06:15:55.307Z,65.10
2019-02-15T06:17:59.832Z,65.10
2019-02-15T06:20:02.756Z,65.20
2019-02-15T06:22:05.689Z,65.20
2019-02-15T06:24:08.831Z,65.10
2019-02-15T06:26:11.752Z,65.10
2019-02-15T06:28:14.676Z,65.10
2019-02-15T06:30:17.634Z,65.10
2019-02-15T06:32:20.551Z,65.20
2019-02-15T06:34:23.479Z,65.10
2019-02-15T06:36:26.444Z,65.10
2019-02-15T06:38:34.875Z,65.20
2019-02-15T06:40:33.064Z,65.30
2019-02-15T06:42:36.901Z,65.30
2019-02-15T06:44:39.969Z,65.20
2019-02-15T06:46:43.664Z,65.40
2019-02-15T06:48:47.391Z,65.50
2019-02-15T06:50:50.313Z,65.40
2019-02-15T06:52:53.269Z,65.50
2019-02-15T06:54:56.200Z,65.60
2019-02-15T06:56:59.120Z,65.60
2019-02-15T06:59:20.743Z,65.60
2019-02-15T07:01:26.318Z,65.70
2019-02-15T07:03:34.874Z,65.60
2019-02-15T07:05:38.552Z,65.80
2019-02-15T07:07:41.508Z,65.70
2019-02-15T07:09:44.420Z,65.80
2019-02-15T07:11:48.863Z,65.90
2019-02-15T07:13:52.363Z,66.60
2019-02-15T07:15:55.288Z,66.00
2019-02-15T07:17:58.227Z,66.00
2019-02-15T07:20:01.961Z,66.10
2019-02-15T07:22:04.878Z,66.10
2019-02-15T07:24:07.796Z,66.10
2019-02-15T07:26:10.743Z,66.20
2019-02-15T07:28:13.664Z,66.20
2019-02-15T07:30:16.585Z,66.20
2019-02-15T07:32:19.940Z,66.20
2019-02-15T07:34:22.876Z,67.00
2019-02-15T07:36:25.824Z,66.30
2019-02-15T07:38:28.863Z,66.30
2019-02-15T07:40:32.589Z,66.40
2019-02-15T07:42:35.504Z,66.30
2019-02-15T07:44:38.795Z,66.30
2019-02-15T07:46:41.737Z,66.50
2019-02-15T07:48:44.664Z,66.50
2019-02-15T07:50:47.856Z,66.50
2019-02-15T07:52:50.771Z,66.60
2019-02-15T07:54:54.447Z,66.70
2019-02-15T07:56:57.478Z,66.60
2019-02-15T07:59:00.399Z,66.60
2019-02-15T08:01:03.417Z,66.70
2019-02-15T08:03:07.135Z,66.80
2019-02-15T08:05:10.065Z,66.70
2019-02-15T08:07:12.981Z,66.60
2019-02-15T08:09:16.721Z,66.70
2019-02-15T08:11:19.645Z,66.60
2019-02-15T08:13:23.345Z,66.80
2019-02-15T08:15:35.695Z,66.80
2019-02-15T08:17:30.236Z,66.70
2019-02-15T08:19:33.153Z,66.80
2019-02-15T08:21:36.241Z,66.80
2019-02-15T08:23:39.179Z,66.90
2019-02-15T08:25:42.103Z,66.90
2019-02-15T08:27:45.169Z,66.90
2019-02-15T08:29:48.859Z,67.00
2019-02-15T08:31:51.772Z,66.90
2019-02-15T08:33:54.833Z,67.00
2019-02-15T08:35:58.519Z,67.00
2019-02-15T08:38:02.208Z,67.20
2019-02-15T08:40:05.211Z,66.90
2019-02-15T08:42:08.212Z,67.00
2019-02-15T08:44:11.151Z,67.00
2019-02-15T08:46:14.092Z,67.00
2019-02-15T08:48:17.124Z,67.10
2019-02-15T08:50:20.036Z,67.10
2019-02-15T08:52:23.764Z,67.10
2019-02-15T08:54:26.714Z,67.10
2019-02-15T08:56:30.406Z,67.10
2019-02-15T08:58:34.216Z,67.10
2019-02-15T09:00:37.891Z,67.10
2019-02-15T09:02:40.844Z,67.00
2019-02-15T09:04:43.909Z,67.00
2019-02-15T09:06:47.580Z,67.00
2019-02-15T09:08:51.247Z,66.90
2019-02-15T09:10:54.379Z,66.90
2019-02-15T09:12:57.308Z,66.80
2019-02-15T09:15:00.333Z,66.60
2019-02-15T09:17:04.055Z,66.60
2019-02-15T09:19:06.975Z,66.60
2019-02-15T09:21:09.997Z,66.50
2019-02-15T09:23:13.720Z,67.00
2019-02-15T09:25:16.645Z,66.30
2019-02-15T09:27:20.443Z,66.20
2019-02-15T09:29:23.791Z,66.20
2019-02-15T09:31:26.746Z,66.00
2019-02-15T09:33:29.667Z,66.00
2019-02-15T09:35:32.866Z,65.80
2019-02-15T09:37:35.779Z,65.80
2019-02-15T09:39:39.581Z,65.70
2019-02-15T09:41:42.212Z,65.60
2019-02-15T09:43:45.138Z,65.40
2019-02-15T09:45:48.107Z,65.30
2019-02-15T09:47:51.455Z,65.30
2019-02-15T09:49:54.375Z,65.30
2019-02-15T09:51:57.836Z,65.20
2019-02-15T09:54:01.536Z,65.00
2019-02-15T09:56:04.468Z,65.00
2019-02-15T09:58:07.607Z,65.00
2019-02-15T10:00:11.303Z,64.40
2019-02-15T10:02:14.232Z,64.20
2019-02-15T10:04:17.249Z,64.20
2019-02-15T10:06:21.399Z,64.30
2019-02-15T10:08:24.322Z,64.10
2019-02-15T10:10:27.264Z,64.10
2019-02-15T10:12:30.226Z,64.20
2019-02-15T10:14:33.159Z,64.00
2019-02-15T10:16:36.083Z,64.00
2019-02-15T10:18:39.791Z,64.50
2019-02-15T10:20:42.708Z,63.80
2019-02-15T10:22:45.629Z,63.70
2019-02-15T10:24:49.457Z,63.50
2019-02-15T10:26:52.380Z,63.40
2019-02-15T10:28:55.408Z,63.30
2019-02-15T10:30:58.504Z,63.10
2019-02-15T10:33:01.438Z,63.00
2019-02-15T10:35:04.354Z,62.90
2019-02-15T10:37:08.071Z,62.50
2019-02-15T10:39:10.996Z,63.20
2019-02-15T10:41:13.945Z,62.20
2019-02-15T10:43:17.136Z,61.80
2019-02-15T10:45:20.051Z,61.50
2019-02-15T10:47:25.122Z,61.00
2019-02-15T10:49:25.945Z,60.60
2019-02-15T10:51:29.644Z,59.90
2019-02-15T10:53:33.348Z,59.70
2019-02-15T10:55:38.066Z,59.60
2019-02-15T10:57:39.273Z,59.40
2019-02-15T10:59:42.322Z,59.20
2019-02-15T11:01:45.383Z,59.00
2019-02-15T11:03:49.188Z,58.50
2019-02-15T11:05:52.876Z,58.10
2019-02-15T11:07:57.569Z,57.90
2019-02-15T11:10:00.592Z,57.70
2019-02-15T11:12:04.395Z,57.30
2019-02-15T11:14:07.600Z,57.30
2019-02-15T11:16:10.535Z,57.10
2019-02-15T11:18:13.548Z,57.00
2019-02-15T11:20:17.297Z,57.20
2019-02-15T11:22:20.247Z,56.80
2019-02-15T11:24:23.163Z,56.80
2019-02-15T11:26:26.111Z,56.70
2019-02-15T11:28:29.059Z,56.50
2019-02-15T11:30:32.768Z,56.80
2019-02-15T11:32:36.539Z,57.10
2019-02-15T11:34:39.479Z,57.00
2019-02-15T11:36:42.420Z,57.30
2019-02-15T11:38:46.260Z,57.50
2019-02-15T11:40:49.223Z,57.50
2019-02-15T11:42:53.033Z,57.80
2019-02-15T11:44:56.137Z,57.80
2019-02-15T11:46:59.083Z,57.70
2019-02-15T11:49:02.818Z,57.80
2019-02-15T11:51:05.774Z,57.70
2019-02-15T11:53:09.460Z,57.80
2019-02-15T11:55:12.395Z,57.70
2019-02-15T11:57:15.927Z,57.60
2019-02-15T11:59:18.928Z,56.70
2019-02-15T12:01:21.867Z,56.50
2019-02-15T12:03:24.828Z,56.40
2019-02-15T12:05:27.779Z,56.40
2019-02-15T12:07:31.494Z,55.90
2019-02-15T12:09:35.261Z,55.80
2019-02-15T12:11:38.191Z,55.80
2019-02-15T12:13:41.330Z,55.80
2019-02-15T12:15:44.487Z,55.80
2019-02-15T12:17:47.433Z,55.80
2019-02-15T12:19:51.237Z,55.80
2019-02-15T12:21:54.385Z,55.80
2019-02-15T12:23:57.271Z,55.50
2019-02-15T12:26:00.212Z,55.30
2019-02-15T12:28:03.268Z,55.30
2019-02-15T12:30:08.552Z,54.80
2019-02-15T12:32:11.481Z,54.70
2019-02-15T12:34:15.239Z,54.40
2019-02-15T12:36:18.202Z,54.30
2019-02-15T12:38:21.146Z,54.10
2019-02-15T12:40:24.563Z,53.80
2019-02-15T12:42:27.493Z,53.40
2019-02-15T12:44:30.449Z,53.10
2019-02-15T12:46:33.416Z,52.70
2019-02-15T12:48:36.362Z,52.30
2019-02-15T12:50:39.285Z,52.10
2019-02-15T12:52:42.255Z,52.00
2019-02-15T12:54:45.191Z,52.00
2019-02-15T12:56:48.130Z,52.00
2019-02-15T12:58:51.134Z,51.80
2019-02-15T13:00:54.153Z,51.40
2019-02-15T13:02:57.869Z,51.30
2019-02-15T13:05:01.602Z,50.60
2019-02-15T13:07:04.531Z,50.50
2019-02-15T13:09:07.486Z,50.40
2019-02-15T13:11:10.469Z,50.30
2019-02-15T13:13:13.387Z,50.20
2019-02-15T13:15:16.343Z,50.10
2019-02-15T13:17:24.620Z,50.00
2019-02-15T13:19:22.350Z,50.10
2019-02-15T13:21:26.154Z,49.90
2019-02-15T13:23:30.001Z,49.40
2019-02-15T13:25:36.797Z,49.30
2019-02-15T13:27:37.355Z,48.80
2019-02-15T13:29:41.171Z,48.50
2019-02-15T13:31:44.108Z,48.50
2019-02-15T13:33:47.124Z,48.10
2019-02-15T13:35:51.780Z,47.90
2019-02-15T13:37:54.713Z,47.80
2019-02-15T13:39:58.410Z,48.00
2019-02-15T13:42:01.393Z,47.40
2019-02-15T13:44:04.316Z,47.30
2019-02-15T13:46:07.248Z,47.40
2019-02-15T13:48:11.076Z,47.70
2019-02-15T13:50:14.878Z,47.40
2019-02-15T13:52:18.568Z,47.10
2019-02-15T13:54:22.345Z,46.20
2019-02-15T13:56:25.276Z,46.10
2019-02-15T13:58:28.219Z,45.60
2019-02-15T14:00:31.356Z,45.40
2019-02-15T14:02:34.325Z,45.20
2019-02-15T14:04:37.261Z,45.10
2019-02-15T14:06:40.311Z,44.70
2019-02-15T14:08:43.257Z,44.30
2019-02-15T14:10:47.064Z,45.30
2019-02-15T14:12:50.116Z,45.30
2019-02-15T14:14:53.132Z,45.10
2019-02-15T14:16:56.837Z,44.50
2019-02-15T14:19:00.557Z,44.20
2019-02-15T14:21:03.483Z,44.20
2019-02-15T14:23:06.499Z,43.90
2019-02-15T14:25:11.141Z,43.60
2019-02-15T14:27:14.924Z,43.50
2019-02-15T14:29:18.726Z,42.70
2019-02-15T14:31:22.456Z,42.70
2019-02-15T14:33:25.407Z,42.70
2019-02-15T14:35:29.110Z,42.30
2019-02-15T14:37:32.824Z,42.40
2019-02-15T14:39:35.744Z,42.40
2019-02-15T14:41:38.672Z,41.80
2019-02-15T14:43:42.579Z,41.20
2019-02-15T14:45:45.520Z,41.10
2019-02-15T14:47:55.001Z,41.00
2019-02-15T14:49:52.281Z,40.70
2019-02-15T14:51:55.329Z,40.60
2019-02-15T14:53:59.131Z,40.30
2019-02-15T14:56:02.864Z,40.40
2019-02-15T14:58:05.795Z,40.30
2019-02-15T15:00:15.750Z,40.30
2019-02-15T15:02:19.470Z,40.30
2019-02-15T15:04:23.262Z,40.40
2019-02-15T15:06:26.941Z,40.50
2019-02-15T15:08:31.495Z,40.30
2019-02-15T15:10:34.419Z,40.20
2019-02-15T15:12:37.392Z,40.10
2019-02-15T15:14:40.344Z,39.80
2019-02-15T15:16:43.279Z,39.60
2019-02-15T15:18:46.249Z,39.60
2019-02-15T15:20:49.211Z,39.40
2019-02-15T15:22:52.228Z,39.30
2019-02-15T15:24:55.160Z,39.30
2019-02-15T15:26:58.141Z,39.20
2019-02-15T15:29:01.066Z,39.20
2019-02-15T15:31:04.089Z,39.10
2019-02-15T15:33:08.132Z,39.40
2019-02-15T15:35:11.071Z,39.40
2019-02-15T15:37:16.758Z,39.10
2019-02-15T15:39:18.706Z,39.70
2019-02-15T15:41:21.629Z,39.00
2019-02-15T15:43:24.651Z,38.90
2019-02-15T15:45:28.468Z,38.90
2019-02-15T15:47:33.229Z,38.80
2019-02-15T15:49:35.954Z,39.00
2019-02-15T15:51:39.983Z,39.10
2019-02-15T15:53:42.919Z,39.00
2019-02-15T15:55:45.931Z,39.00
2019-02-15T15:57:49.701Z,39.40
2019-02-15T15:59:52.628Z,39.20
2019-02-15T16:01:55.561Z,39.40
2019-02-15T16:03:58.582Z,39.30
2019-02-15T16:06:02.276Z,39.40
2019-02-15T16:08:05.259Z,39.30
2019-02-15T16:10:12.648Z,39.30
2019-02-15T16:12:15.878Z,39.30
2019-02-15T16:14:18.815Z,39.30
2019-02-15T16:16:22.554Z,39.40
2019-02-15T16:18:33.055Z,39.40
2019-02-15T16:20:28.443Z,39.50
2019-02-15T16:22:31.491Z,39.60
2019-02-15T16:24:34.415Z,39.60
2019-02-15T16:26:37.431Z,39.60
2019-02-15T16:28:41.152Z,39.80
2019-02-15T16:30:44.095Z,39.70
2019-02-15T16:32:47.035Z,39.80
2019-02-15T16:34:49.986Z,40.00
2019-02-15T16:36:52.946Z,40.00
2019-02-15T16:38:56.660Z,40.50
2019-02-15T16:40:59.785Z,40.00
2019-02-15T16:43:02.896Z,40.00
2019-02-15T16:45:05.808Z,40.20
2019-02-15T16:47:09.617Z,40.40
2019-02-15T16:49:13.421Z,40.50
2019-02-15T16:51:17.120Z,40.50
2019-02-15T16:53:20.860Z,40.60
2019-02-15T16:55:23.803Z,40.50
2019-02-15T16:57:27.604Z,40.70
2019-02-15T16:59:31.770Z,41.40
2019-02-15T17:01:34.712Z,40.80
2019-02-15T17:03:37.638Z,40.90
2019-02-15T17:05:40.600Z,41.00
2019-02-15T17:07:43.512Z,41.20
2019-02-15T17:09:46.529Z,41.40
2019-02-15T17:11:50.352Z,41.90
2019-02-15T17:13:53.416Z,41.80
2019-02-15T17:15:57.132Z,42.30
2019-02-15T17:18:00.116Z,42.30
2019-02-15T17:20:03.056Z,42.60
2019-02-15T17:22:06.166Z,42.90
2019-02-15T17:24:10.001Z,43.40
2019-02-15T17:26:12.933Z,43.30
2019-02-15T17:28:16.632Z,44.00
2019-02-15T17:30:19.583Z,43.60
2019-02-15T17:32:22.514Z,43.80
2019-02-15T17:34:26.222Z,44.20
2019-02-15T17:36:29.963Z,44.20
2019-02-15T17:38:32.898Z,44.20
2019-02-15T17:40:35.838Z,44.40
2019-02-15T17:42:38.813Z,44.50
2019-02-15T17:44:41.736Z,45.30
2019-02-15T17:46:45.444Z,45.10
2019-02-15T17:48:49.188Z,45.20
2019-02-15T17:50:52.109Z,45.20
2019-02-15T17:52:55.815Z,45.50
2019-02-15T17:54:59.554Z,45.60
2019-02-15T17:57:02.509Z,45.60
2019-02-15T17:59:06.231Z,46.40
2019-02-15T18:01:09.295Z,45.80
2019-02-15T18:03:13.000Z,46.10
2019-02-15T18:05:16.948Z,46.10
2019-02-15T18:07:19.936Z,46.20
2019-02-15T18:09:22.928Z,46.20
2019-02-15T18:11:25.955Z,46.40
2019-02-15T18:13:29.688Z,46.60
2019-02-15T18:15:32.612Z,46.50
2019-02-15T18:17:35.595Z,46.70
2019-02-15T18:19:46.889Z,46.70
2019-02-15T18:21:41.787Z,46.80
2019-02-15T18:23:45.591Z,47.00
2019-02-15T18:25:49.828Z,47.10
2019-02-15T18:27:52.760Z,47.00
2019-02-15T18:29:55.978Z,47.20
2019-02-15T18:31:59.722Z,47.30
2019-02-15T18:34:02.656Z,47.30
2019-02-15T18:36:06.459Z,47.60
2019-02-15T18:38:10.276Z,47.70
2019-02-15T18:40:13.265Z,47.50
2019-02-15T18:42:16.204Z,47.60
2019-02-15T18:44:19.158Z,47.70
2019-02-15T18:46:22.090Z,47.90
2019-02-15T18:48:26.611Z,48.00
2019-02-15T18:50:30.384Z,48.20
2019-02-15T18:52:33.311Z,48.10
2019-02-15T18:54:36.275Z,48.20
2019-02-15T18:56:39.397Z,48.30
2019-02-15T18:58:42.332Z,48.30
2019-02-15T19:00:46.148Z,48.50
2019-02-15T19:02:50.283Z,48.60
2019-02-15T19:04:53.224Z,48.50
2019-02-15T19:06:56.173Z,48.60
2019-02-15T19:08:59.207Z,48.70
2019-02-15T19:11:02.916Z,48.90
2019-02-15T19:13:05.856Z,48.90
2019-02-15T19:15:08.823Z,49.00
2019-02-15T19:17:11.854Z,49.10
2019-02-15T19:19:15.552Z,49.40
2019-02-15T19:21:19.305Z,49.40
2019-02-15T19:23:22.339Z,49.40
2019-02-15T19:25:26.055Z,49.50
2019-02-15T19:27:29.023Z,49.50
2019-02-15T19:29:32.834Z,49.70
2019-02-15T19:31:35.788Z,49.60
2019-02-15T19:33:38.756Z,49.70
2019-02-15T19:35:41.980Z,49.80
2019-02-15T19:37:45.759Z,50.00
2019-02-15T19:39:49.126Z,50.00
2019-02-15T19:41:52.158Z,50.00
2019-02-15T19:43:55.959Z,50.10
2019-02-15T19:45:59.679Z,50.20
2019-02-15T19:48:02.691Z,50.20
2019-02-15T19:50:08.161Z,50.20
2019-02-15T19:52:12.016Z,50.30
2019-02-15T19:54:14.956Z,50.20
2019-02-15T19:56:18.919Z,50.40
2019-02-15T19:58:21.887Z,50.30
2019-02-15T20:00:25.648Z,50.30
2019-02-15T20:02:29.465Z,50.40
2019-02-15T20:04:33.307Z,50.50
2019-02-15T20:06:37.171Z,51.30
2019-02-15T20:08:40.900Z,51.50
2019-02-15T20:10:43.957Z,51.40
2019-02-15T20:12:47.652Z,51.50
2019-02-15T20:14:51.355Z,51.60
2019-02-15T20:16:54.445Z,51.50
2019-02-15T20:18:58.247Z,51.70
2019-02-15T20:21:01.185Z,51.60
2019-02-15T20:23:04.235Z,51.70
2019-02-15T20:25:07.171Z,51.70
2019-02-15T20:27:10.174Z,51.80
2019-02-15T20:29:14.003Z,52.00
2019-02-15T20:31:17.165Z,51.90
2019-02-15T20:33:20.105Z,52.00
2019-02-15T20:35:23.258Z,52.00
2019-02-15T20:37:26.324Z,52.10
2019-02-15T20:39:29.259Z,52.20
2019-02-15T20:41:32.631Z,52.30
2019-02-15T20:43:35.584Z,52.30
2019-02-15T20:45:38.533Z,52.30
2019-02-15T20:47:41.508Z,52.30
2019-02-15T20:49:44.499Z,52.40
2019-02-15T20:51:47.432Z,52.50
2019-02-15T20:53:50.492Z,52.60
2019-02-15T20:55:54.200Z,52.80
2019-02-15T20:57:57.136Z,52.70
2019-02-15T21:00:02.099Z,52.90
2019-02-15T21:02:05.085Z,52.90
2019-02-15T21:04:08.838Z,53.00
2019-02-15T21:06:11.892Z,52.90
2019-02-15T21:08:14.860Z,53.00
2019-02-15T21:10:18.759Z,53.10
2019-02-15T21:12:22.073Z,53.10
2019-02-15T21:14:25.067Z,53.20
2019-02-15T21:16:28.004Z,53.30
2019-02-15T21:18:31.737Z,53.50
2019-02-15T21:20:34.647Z,53.40
2019-02-15T21:22:37.680Z,53.40
2019-02-15T21:24:41.523Z,53.60
2019-02-15T21:26:44.449Z,53.50
2019-02-15T21:28:47.449Z,53.60
2019-02-15T21:30:51.252Z,53.70
2019-02-15T21:32:54.338Z,53.70
2019-02-15T21:34:58.069Z,53.90
2019-02-15T21:37:01.051Z,53.80
2019-02-15T21:39:04.138Z,53.90
2019-02-15T21:41:07.799Z,54.10
2019-02-15T21:43:11.530Z,54.20
2019-02-15T21:45:14.489Z,54.10
2019-02-15T21:47:18.254Z,54.80
2019-02-15T21:49:21.293Z,54.20
2019-02-15T21:51:24.240Z,54.30
2019-02-15T21:53:27.942Z,54.60
2019-02-15T21:55:31.759Z,54.60
2019-02-15T21:57:34.716Z,54.50
2019-02-15T21:59:37.649Z,54.60
2019-02-15T22:01:40.617Z,54.60
2019-02-15T22:03:43.795Z,54.60
2019-02-15T22:05:46.862Z,54.60
2019-02-15T22:07:50.586Z,54.60
2019-02-15T22:09:53.666Z,54.60
2019-02-15T22:11:57.016Z,54.60
2019-02-15T22:14:00.213Z,54.60
2019-02-15T22:16:03.169Z,54.60
2019-02-15T22:18:06.315Z,54.60
2019-02-15T22:20:12.267Z,54.60
2019-02-15T22:22:15.232Z,54.60
2019-02-15T22:24:18.940Z,54.50
2019-02-15T22:26:22.158Z,54.40
2019-02-15T22:28:25.072Z,54.40
2019-02-15T22:30:28.011Z,54.40
2019-02-15T22:32:31.103Z,54.40
2019-02-15T22:34:34.027Z,54.40
2019-02-15T22:36:37.051Z,54.40
2019-02-15T22:38:40.779Z,54.40
2019-02-15T22:40:43.720Z,54.30
2019-02-15T22:42:47.412Z,54.50
2019-02-15T22:44:50.364Z,54.40
2019-02-15T22:46:53.352Z,54.40
2019-02-15T22:48:56.247Z,54.50
2019-02-15T22:50:59.389Z,54.50
2019-02-15T22:53:02.311Z,54.60
2019-02-15T22:55:05.335Z,54.70
2019-02-15T22:57:08.324Z,54.60
2019-02-15T22:59:11.300Z,54.70
2019-02-15T23:01:15.001Z,54.90
2019-02-15T23:03:19.520Z,54.90
2019-02-15T23:05:22.619Z,55.00
2019-02-15T23:07:25.554Z,55.00
2019-02-15T23:09:29.963Z,55.00
2019-02-15T23:11:32.900Z,55.10
2019-02-15T23:13:35.926Z,55.10
2019-02-15T23:15:39.307Z,55.10
2019-02-15T23:17:42.352Z,55.20
2019-02-15T23:19:45.920Z,55.20
2019-02-15T23:21:50.381Z,55.50
2019-02-15T23:23:53.303Z,55.40
2019-02-15T23:25:56.327Z,55.40
2019-02-15T23:28:00.048Z,55.60
2019-02-15T23:30:02.972Z,55.50
2019-02-15T23:32:05.994Z,55.60
2019-02-15T23:34:09.724Z,55.60
2019-02-15T23:36:12.652Z,55.60
2019-02-15T23:38:15.594Z,55.60
2019-02-15T23:40:18.539Z,55.60
2019-02-15T23:42:22.272Z,55.70
2019-02-15T23:44:25.214Z,55.60
2019-02-15T23:46:29.040Z,55.80
2019-02-15T23:48:31.959Z,55.70
2019-02-15T23:50:34.928Z,55.80
2019-02-15T23:52:38.737Z,55.80
2019-02-15T23:54:41.775Z,55.70
2019-02-15T23:56:45.459Z,55.80
2019-02-15T23:58:49.564Z,55.80
